Time;durP1;ratioP1;P1;durP2;ratioP2;P2;SDS_P1;SDS_P2;PMS_P1;PMS_P2;Temp;Humidity;BMP_temperature;BMP_pressure;BME280_temperature;BME280_humidity;BME280_pressure;Samples;Min_cycle;Max_cycle;Signal;HPM_P1;HPM_P2
2023/07/06 00:01:31;;;;;;;14.50;5.82;;;13.40;99.90;;;;;;5031615;28;20028;-88
2023/07/06 00:04:12;;;;;;;9.98;5.28;;;13.50;99.90;;;;;;5062780;28;20123;-88
2023/07/06 00:06:40;;;;;;;10.57;5.90;;;13.40;99.90;;;;;;5062966;28;20078;-88
2023/07/06 00:09:07;;;;;;;13.90;5.53;;;13.30;99.90;;;;;;5045195;28;20331;-88
2023/07/06 00:11:39;;;;;;;11.77;5.60;;;13.40;99.90;;;;;;5045286;28;20035;-87
2023/07/06 00:14:14;;;;;;;12.25;5.38;;;13.40;99.90;;;;;;5057579;28;20031;-88
2023/07/06 00:16:47;;;;;;;8.88;4.80;;;13.40;99.90;;;;;;5044353;28;20033;-88
2023/07/06 00:19:18;;;;;;;11.48;5.80;;;13.40;99.90;;;;;;5041658;28;20040;-88
2023/07/06 00:21:45;;;;;;;12.50;4.78;;;13.40;99.90;;;;;;5047788;28;20042;-88
2023/07/06 00:24:11;;;;;;;9.15;5.20;;;13.30;99.90;;;;;;5058346;28;20037;-88
2023/07/06 00:26:37;;;;;;;10.18;5.10;;;13.30;99.90;;;;;;5025312;28;20063;-88
2023/07/06 00:29:04;;;;;;;9.25;5.32;;;13.30;99.90;;;;;;5041426;28;20052;-88
2023/07/06 00:31:40;;;;;;;9.60;5.18;;;13.30;99.90;;;;;;5028693;28;20028;-88
2023/07/06 00:34:08;;;;;;;8.27;5.22;;;13.30;99.90;;;;;;5067394;28;20417;-87
2023/07/06 00:36:37;;;;;;;9.88;4.97;;;13.30;99.90;;;;;;5048575;28;20070;-88
2023/07/06 00:39:04;;;;;;;10.27;4.70;;;13.30;99.90;;;;;;5048408;28;20081;-88
2023/07/06 00:41:32;;;;;;;7.85;4.63;;;13.30;99.90;;;;;;5029066;28;20086;-88
2023/07/06 00:44:05;;;;;;;9.82;4.80;;;13.30;99.90;;;;;;5051951;28;20055;-90
2023/07/06 00:46:39;;;;;;;7.97;4.55;;;13.30;99.90;;;;;;5045571;28;20032;-88
2023/07/06 00:49:11;;;;;;;8.80;4.68;;;13.30;99.90;;;;;;5044804;28;20094;-88
2023/07/06 00:51:40;;;;;;;12.23;5.43;;;13.30;99.90;;;;;;5044864;28;20029;-88
2023/07/06 00:54:14;;;;;;;10.95;5.38;;;13.30;99.90;;;;;;5044986;28;20033;-88
2023/07/06 00:56:46;;;;;;;11.70;5.05;;;13.30;99.90;;;;;;5030236;28;20032;-87
2023/07/06 00:59:19;;;;;;;12.00;5.00;;;13.30;99.90;;;;;;5047269;28;20123;-88
2023/07/06 01:01:47;;;;;;;10.85;5.10;;;13.30;99.90;;;;;;5028461;28;20021;-88
2023/07/06 01:04:17;;;;;;;11.52;5.00;;;13.30;99.90;;;;;;5012243;28;20050;-88
2023/07/06 01:06:53;;;;;;;15.25;4.95;;;13.40;99.90;;;;;;5045903;28;20041;-88
2023/07/06 01:09:19;;;;;;;10.90;5.07;;;13.40;99.90;;;;;;5064953;28;20032;-88
2023/07/06 01:11:48;;;;;;;11.90;4.80;;;13.40;99.90;;;;;;5044732;28;20028;-88
2023/07/06 01:14:15;;;;;;;11.88;4.70;;;13.40;99.90;;;;;;5048401;28;20040;-89
2023/07/06 01:17:18;;;;;;;10.60;4.60;;;13.40;99.90;;;;;;5048943;28;20433;-87
2023/07/06 01:19:52;;;;;;;11.15;4.88;;;13.40;99.90;;;;;;5064620;28;20040;-88
2023/07/06 01:22:40;;;;;;;14.23;4.90;;;13.40;99.90;;;;;;5044532;28;20047;-88
2023/07/06 01:25:25;;;;;;;7.18;4.07;;;13.40;99.90;;;;;;5060923;28;20063;-88
2023/07/06 01:28:00;;;;;;;9.90;5.00;;;13.40;99.90;;;;;;5031725;28;20036;-88
2023/07/06 01:30:33;;;;;;;11.70;4.90;;;13.40;99.90;;;;;;5027812;28;20319;-89
2023/07/06 01:33:07;;;;;;;8.82;4.45;;;13.40;99.90;;;;;;5055067;28;20035;-88
2023/07/06 01:35:50;;;;;;;10.25;4.65;;;13.40;99.90;;;;;;5048018;28;20036;-89
2023/07/06 01:38:23;;;;;;;9.63;4.68;;;13.40;99.90;;;;;;5047614;28;20084;-88
2023/07/06 01:40:52;;;;;;;11.80;5.40;;;13.40;99.90;;;;;;5064390;28;20548;-88
2023/07/06 01:43:21;;;;;;;12.00;4.72;;;13.40;99.90;;;;;;5063040;28;20414;-88
2023/07/06 01:45:48;;;;;;;8.80;4.88;;;13.40;99.90;;;;;;5047780;28;20028;-88
2023/07/06 01:48:15;;;;;;;9.57;4.68;;;13.50;99.90;;;;;;5047486;28;20043;-88
2023/07/06 01:50:49;;;;;;;8.70;4.57;;;13.40;99.90;;;;;;5063770;28;20032;-89
2023/07/06 01:53:44;;;;;;;11.48;4.40;;;13.50;99.90;;;;;;5064126;28;20032;-88
2023/07/06 01:56:25;;;;;;;7.68;4.88;;;13.50;99.90;;;;;;5040198;28;20442;-88
2023/07/06 01:59:05;;;;;;;10.82;5.68;;;13.50;99.90;;;;;;5037116;28;20029;-88
2023/07/06 02:01:37;;;;;;;12.25;5.40;;;13.50;99.90;;;;;;5043863;28;20105;-88
2023/07/06 02:04:12;;;;;;;8.05;4.65;;;13.40;99.90;;;;;;5043848;28;20131;-88
2023/07/06 02:06:39;;;;;;;7.20;4.55;;;13.40;99.90;;;;;;5043877;28;20029;-89
2023/07/06 02:09:06;;;;;;;10.20;5.47;;;13.30;99.90;;;;;;5051460;28;20024;-92
2023/07/06 02:11:40;;;;;;;10.25;5.38;;;13.30;99.90;;;;;;5064101;28;20034;-88
2023/07/06 02:14:07;;;;;;;9.68;4.78;;;13.30;99.90;;;;;;5059978;28;20028;-89
2023/07/06 02:16:37;;;;;;;8.25;5.15;;;13.30;99.90;;;;;;5026808;28;20047;-88
2023/07/06 02:19:03;;;;;;;13.85;5.30;;;13.30;99.90;;;;;;5043260;28;20029;-88
2023/07/06 02:21:33;;;;;;;10.95;4.90;;;13.20;99.90;;;;;;5026916;28;20119;-88
2023/07/06 02:23:59;;;;;;;10.52;5.00;;;13.20;99.90;;;;;;5030289;28;20097;-88
2023/07/06 02:26:28;;;;;;;10.52;5.00;;;13.20;99.90;;;;;;5043115;28;20029;-88
2023/07/06 02:28:57;;;;;;;9.55;5.00;;;13.20;99.90;;;;;;5030923;28;20033;-88
2023/07/06 02:31:23;;;;;;;13.38;5.20;;;13.20;99.90;;;;;;5059525;28;20103;-88
2023/07/06 02:33:54;;;;;;;8.88;4.88;;;13.10;99.90;;;;;;5026759;28;20028;-88
2023/07/06 02:36:20;;;;;;;9.77;4.45;;;13.10;99.90;;;;;;5026423;28;20098;-88
2023/07/06 02:38:47;;;;;;;8.15;4.57;;;13.10;99.90;;;;;;5010055;28;20111;-88
2023/07/06 02:41:14;;;;;;;9.82;4.70;;;13.10;99.90;;;;;;5042493;28;20024;-88
2023/07/06 02:43:43;;;;;;;9.45;4.85;;;13.10;99.90;;;;;;5009652;28;20139;-88
2023/07/06 02:46:11;;;;;;;8.90;4.75;;;13.10;99.90;;;;;;5025943;28;20111;-92
2023/07/06 02:48:38;;;;;;;7.97;4.50;;;13.10;99.90;;;;;;5025812;28;20041;-88
2023/07/06 02:51:06;;;;;;;10.18;4.90;;;13.00;99.90;;;;;;5042436;28;20036;-88
2023/07/06 02:53:32;;;;;;;8.48;4.72;;;13.00;99.90;;;;;;5042711;28;20035;-88
2023/07/06 02:56:00;;;;;;;8.88;4.68;;;13.00;99.90;;;;;;5039763;28;20032;-88
2023/07/06 02:58:27;;;;;;;7.10;4.82;;;13.00;99.90;;;;;;5027462;28;20074;-88
2023/07/06 03:00:54;;;;;;;8.77;4.28;;;13.00;99.90;;;;;;5050059;28;20082;-88
2023/07/06 03:03:26;;;;;;;10.48;4.65;;;13.00;99.90;;;;;;5026935;28;20043;-88
2023/07/06 03:05:55;;;;;;;12.10;5.45;;;13.00;99.90;;;;;;5061372;28;20334;-88
2023/07/06 03:08:23;;;;;;;9.50;4.72;;;12.90;99.90;;;;;;5029485;28;20040;-88
2023/07/06 03:10:49;;;;;;;10.48;5.45;;;12.90;99.90;;;;;;5046061;28;20025;-88
2023/07/06 03:13:18;;;;;;;9.15;5.22;;;12.90;99.90;;;;;;5032170;28;20030;-89
2023/07/06 03:15:50;;;;;;;11.02;5.20;;;12.90;99.90;;;;;;5041803;28;20419;-88
2023/07/06 03:18:18;;;;;;;11.77;5.70;;;12.90;99.90;;;;;;5042392;28;20083;-89
2023/07/06 03:20:50;;;;;;;11.82;5.15;;;12.90;99.90;;;;;;5027275;28;20048;-88
2023/07/06 03:23:18;;;;;;;10.77;5.88;;;12.90;99.90;;;;;;5025521;28;20055;-87
2023/07/06 03:25:50;;;;;;;9.13;5.55;;;12.90;99.90;;;;;;5041892;28;20381;-88
2023/07/06 03:28:16;;;;;;;9.30;5.90;;;13.00;99.90;;;;;;5045434;28;20032;-88
2023/07/06 03:30:43;;;;;;;8.18;5.13;;;13.00;99.90;;;;;;5047690;28;20032;-88
2023/07/06 03:33:09;;;;;;;11.02;4.80;;;13.00;99.90;;;;;;5042350;28;20090;-88
2023/07/06 03:35:40;;;;;;;10.18;5.50;;;13.00;99.90;;;;;;5037134;28;20036;-88
2023/07/06 03:38:06;;;;;;;10.20;5.10;;;13.00;99.90;;;;;;5058405;28;20021;-88
2023/07/06 03:40:32;;;;;;;11.00;5.30;;;13.10;99.90;;;;;;5058109;28;20032;-88
2023/07/06 03:42:58;;;;;;;14.95;6.13;;;13.10;99.90;;;;;;5058008;28;20053;-88
2023/07/06 03:45:25;;;;;;;10.15;5.93;;;13.10;99.90;;;;;;5025164;28;20040;-88
2023/07/06 03:47:51;;;;;;;12.98;6.20;;;13.10;99.90;;;;;;5041899;28;20037;-88
2023/07/06 03:50:20;;;;;;;17.73;6.78;;;13.20;99.90;;;;;;5025105;28;20032;-88
2023/07/06 03:52:46;;;;;;;11.27;5.85;;;13.20;99.90;;;;;;5041608;28;20288;-88
2023/07/06 03:55:26;;;;;;;13.35;5.97;;;13.20;99.90;;;;;;5035527;28;20490;-88
2023/07/06 03:57:53;;;;;;;11.57;5.95;;;13.20;99.90;;;;;;5041880;28;20450;-88
2023/07/06 04:00:22;;;;;;;14.43;6.07;;;13.30;99.90;;;;;;5025071;28;20025;-88
2023/07/06 04:02:58;;;;;;;12.27;7.10;;;13.20;99.90;;;;;;5043777;28;20040;-88
2023/07/06 04:05:44;;;;;;;15.98;7.45;;;13.30;99.90;;;;;;5025902;28;20126;-88
2023/07/06 04:08:15;;;;;;;15.50;6.88;;;13.30;99.90;;;;;;5044358;28;20036;-89
2023/07/06 04:10:44;;;;;;;13.88;7.18;;;13.30;99.90;;;;;;5062612;28;20120;-88
2023/07/06 04:13:16;;;;;;;14.02;7.00;;;13.30;99.90;;;;;;5061363;28;20024;-88
2023/07/06 04:15:46;;;;;;;14.38;6.80;;;13.40;99.90;;;;;;5030232;28;20082;-88
2023/07/06 04:18:25;;;;;;;;;;;;;;;;;;;;;
2023/07/06 04:20:53;;;;;;;17.85;8.20;;;13.40;99.90;;;;;;5045705;28;20036;-88
2023/07/06 04:23:19;;;;;;;15.15;7.40;;;13.40;99.90;;;;;;5027948;28;20436;-88
2023/07/06 04:25:48;;;;;;;15.73;6.93;;;13.40;99.90;;;;;;5029164;28;20098;-88
2023/07/06 04:28:15;;;;;;;15.32;7.20;;;13.40;99.90;;;;;;5028824;28;20040;-88
2023/07/06 04:30:44;;;;;;;18.80;8.38;;;13.50;99.90;;;;;;5062185;28;20127;-88
2023/07/06 04:33:16;;;;;;;17.10;7.65;;;13.60;99.90;;;;;;5028995;28;20131;-89
2023/07/06 04:35:43;;;;;;;15.95;8.43;;;13.60;99.90;;;;;;5053285;28;20035;-88
2023/07/06 04:38:14;;;;;;;12.68;7.00;;;13.60;99.90;;;;;;5065014;28;20419;-90
2023/07/06 04:40:43;;;;;;;20.95;7.97;;;13.60;99.90;;;;;;5047087;28;20300;-88
2023/07/06 04:43:14;;;;;;;16.52;8.18;;;13.60;99.90;;;;;;5039413;28;20056;-88
2023/07/06 04:45:44;;;;;;;14.60;7.35;;;13.60;99.90;;;;;;5045557;28;20339;-89
2023/07/06 04:48:16;;;;;;;17.17;8.05;;;13.70;99.90;;;;;;5045206;28;20116;-90
2023/07/06 04:50:46;;;;;;;18.20;8.35;;;13.70;99.90;;;;;;5045687;28;20067;-89
2023/07/06 04:53:16;;;;;;;15.02;8.05;;;13.70;99.90;;;;;;5044411;28;20431;-88
2023/07/06 04:55:42;;;;;;;28.20;10.70;;;13.70;99.90;;;;;;5018993;28;20082;-88
2023/07/06 04:58:11;;;;;;;19.23;9.48;;;13.80;99.90;;;;;;5028698;28;20029;-88
2023/07/06 05:00:39;;;;;;;22.02;8.70;;;13.90;99.90;;;;;;5028900;28;20028;-89
2023/07/06 05:03:11;;;;;;;21.33;8.13;;;13.80;99.90;;;;;;5029100;28;20032;-89
2023/07/06 05:05:43;;;;;;;14.93;7.70;;;13.90;99.90;;;;;;5045254;28;20035;-89
2023/07/06 05:08:15;;;;;;;17.60;7.97;;;14.00;99.90;;;;;;5028634;28;20111;-90
2023/07/06 05:10:46;;;;;;;20.55;8.68;;;14.00;99.90;;;;;;5045217;28;20035;-89
2023/07/06 05:13:15;;;;;;;16.33;8.15;;;14.10;99.90;;;;;;5061729;28;20130;-89
2023/07/06 05:16:01;;;;;;;22.73;8.63;;;14.10;99.90;;;;;;5033099;28;20025;-89
2023/07/06 05:18:32;;;;;;;15.20;7.57;;;14.20;99.90;;;;;;5028759;28;20033;-89
2023/07/06 05:21:11;;;;;;;18.58;7.30;;;14.20;99.90;;;;;;5063477;28;20028;-89
2023/07/06 05:23:41;;;;;;;17.35;7.78;;;14.30;99.90;;;;;;5045318;28;20045;-89
2023/07/06 05:26:09;;;;;;;17.23;7.88;;;14.40;99.90;;;;;;5044706;28;20115;-90
2023/07/06 05:28:41;;;;;;;21.92;8.35;;;14.40;99.90;;;;;;5045062;28;20032;-88
2023/07/06 05:31:15;;;;;;;17.65;8.10;;;14.40;99.90;;;;;;5028953;28;20339;-89
2023/07/06 05:33:44;;;;;;;19.45;7.55;;;14.50;99.90;;;;;;5044180;28;20529;-90
2023/07/06 05:36:14;;;;;;;16.70;8.38;;;14.60;99.90;;;;;;5044750;28;20035;-90
2023/07/06 05:38:40;;;;;;;16.48;7.97;;;14.60;99.90;;;;;;5060948;28;20070;-89
2023/07/06 05:41:09;;;;;;;20.73;8.63;;;14.70;99.90;;;;;;5044443;28;20074;-89
2023/07/06 05:43:38;;;;;;;18.35;8.30;;;14.80;99.90;;;;;;5031588;28;20071;-89
2023/07/06 05:46:18;;;;;;;18.13;8.38;;;14.90;99.90;;;;;;5048242;28;20024;-89
2023/07/06 05:48:49;;;;;;;19.55;8.80;;;15.00;99.90;;;;;;5028403;28;20052;-89
2023/07/06 05:54:51;;;;;;;15.52;7.68;;;15.20;99.90;;;;;;5069856;28;20036;-89
2023/07/06 05:57:20;;;;;;;16.63;7.93;;;15.20;99.90;;;;;;5028751;28;20068;-90
2023/07/06 05:59:53;;;;;;;22.80;8.43;;;15.30;99.90;;;;;;5044366;28;20025;-90
2023/07/06 06:02:43;;;;;;;19.23;7.90;;;15.40;99.90;;;;;;5066680;28;20035;-88
2023/07/06 06:05:14;;;;;;;16.77;7.93;;;15.50;99.90;;;;;;5047310;28;20031;-89
2023/07/06 06:07:45;;;;;;;15.50;6.65;;;15.60;99.90;;;;;;5048439;28;20036;-88
2023/07/06 06:10:14;;;;;;;16.70;6.82;;;15.70;99.90;;;;;;5047810;28;20034;-88
2023/07/06 06:12:41;;;;;;;19.92;6.88;;;15.80;99.90;;;;;;5042922;28;20020;-87
2023/07/06 06:15:07;;;;;;;16.70;7.38;;;15.90;99.90;;;;;;5040615;28;20032;-87
2023/07/06 06:17:36;;;;;;;19.05;6.78;;;16.00;99.90;;;;;;5063499;28;20446;-87
2023/07/06 06:20:08;;;;;;;20.25;6.70;;;16.00;99.90;;;;;;5034726;28;20033;-87
2023/07/06 06:22:34;;;;;;;15.55;5.63;;;16.10;99.90;;;;;;5026752;28;20510;-87
2023/07/06 06:25:06;;;;;;;16.42;5.93;;;16.20;99.90;;;;;;5037906;28;20028;-88
2023/07/06 06:27:32;;;;;;;18.88;6.47;;;16.30;99.90;;;;;;5027289;28;20052;-90
2023/07/06 06:29:58;;;;;;;15.27;4.63;;;16.40;99.90;;;;;;5026805;28;20173;-89
2023/07/06 06:32:34;;;;;;;17.50;4.72;;;16.40;99.90;;;;;;5044255;28;20033;-89
2023/07/06 06:38:54;;;;;;;13.45;4.05;;;16.60;99.90;;;;;;5043580;28;20090;-89
2023/07/06 06:41:21;;;;;;;13.27;3.90;;;16.70;99.90;;;;;;5027532;28;20044;-89
2023/07/06 06:43:48;;;;;;;9.85;3.42;;;16.70;99.90;;;;;;5028397;28;20454;-89
2023/07/06 06:55:17;;;;;;;8.73;3.00;;;16.80;99.90;;;;;;5057665;28;20035;-88
2023/07/06 06:57:43;;;;;;;7.30;2.65;;;16.80;99.90;;;;;;5007317;28;20116;-90
2023/07/06 07:00:10;;;;;;;5.47;2.30;;;16.90;99.90;;;;;;5023426;28;20129;-89
2023/07/06 07:02:40;;;;;;;7.72;2.28;;;17.00;99.90;;;;;;5023309;28;20033;-89
2023/07/06 07:05:21;;;;;;;7.30;2.10;;;17.00;99.90;;;;;;5039494;28;20111;-89
2023/07/06 07:17:27;;;;;;;4.53;1.45;;;17.20;99.90;;;;;;5057239;28;20453;-88
2023/07/06 07:24:42;;;;;;;3.25;1.48;;;17.40;99.90;;;;;;5057045;28;20063;-89
2023/07/06 07:31:35;;;;;;;7.22;1.92;;;17.40;99.90;;;;;;5056750;28;20498;-89
2023/07/06 07:38:51;;;;;;;3.65;1.75;;;17.60;99.90;;;;;;5057027;28;20036;-89
2023/07/06 07:41:18;;;;;;;4.50;1.50;;;17.70;99.90;;;;;;5005375;28;20155;-89
2023/07/06 07:47:46;;;;;;;5.05;1.48;;;17.90;99.90;;;;;;5056983;28;20159;-89
2023/07/06 07:54:53;;;;;;;4.28;1.50;;;18.00;99.90;;;;;;5056774;28;20060;-89
2023/07/06 07:57:22;;;;;;;8.32;1.70;;;18.20;99.90;;;;;;5006794;28;20464;-89
2023/07/06 07:59:51;;;;;;;6.22;1.60;;;18.30;99.90;;;;;;4990036;28;20118;-89
2023/07/06 08:07:45;;;;;;;7.68;2.10;;;18.60;99.90;;;;;;5056360;28;19915;-89
2023/07/06 08:14:53;;;;;;;11.52;1.80;;;18.90;99.90;;;;;;5056597;28;20387;-90
2023/07/06 08:21:50;;;;;;;5.05;1.42;;;19.10;99.90;;;;;;5056549;28;20032;-89
2023/07/06 08:28:57;;;;;;;7.00;1.63;;;19.40;99.90;;;;;;5056794;28;20032;-89
2023/07/06 08:31:24;;;;;;;6.22;1.73;;;19.30;99.90;;;;;;5005710;28;20037;-90
2023/07/06 08:38:37;;;;;;;6.50;1.73;;;19.30;99.90;;;;;;5047917;28;20154;-89
2023/07/06 08:46:06;;;;;;;5.32;1.67;;;19.30;99.90;;;;;;5055904;28;20040;-89
2023/07/06 09:01:54;;;;;;;8.30;2.33;;;19.30;99.90;;;;;;5059396;28;20160;-89
2023/07/06 09:04:53;;;;;;;10.60;2.42;;;19.30;99.90;;;;;;5009629;28;20029;-89
2023/07/06 09:12:10;;;;;;;6.63;1.90;;;19.60;99.90;;;;;;5059332;28;20112;-89
2023/07/06 09:14:42;;;;;;;5.20;2.38;;;19.60;99.90;;;;;;5041734;28;20028;-89
2023/07/06 09:18:03;;;;;;;3.75;1.40;;;19.70;99.90;;;;;;5028604;28;20040;-89
2023/07/06 09:20:29;;;;;;;6.00;1.80;;;19.70;99.90;;;;;;5044309;28;20036;-89
2023/07/06 09:22:58;;;;;;;5.20;1.50;;;19.70;99.90;;;;;;5028111;28;20048;-88
2023/07/06 09:25:29;;;;;;;7.25;2.17;;;19.70;99.90;;;;;;5028976;28;20033;-89
2023/07/06 09:27:58;;;;;;;6.03;1.55;;;19.70;99.90;;;;;;5044807;28;20036;-89
2023/07/06 09:31:06;;;;;;;8.07;2.10;;;19.70;99.90;;;;;;5040692;28;20045;-89
2023/07/06 09:33:32;;;;;;;8.60;2.10;;;19.80;99.90;;;;;;5027168;28;20439;-89
2023/07/06 09:35:58;;;;;;;5.68;1.70;;;19.90;99.90;;;;;;5024713;28;20323;-89
2023/07/06 09:39:07;;;;;;;3.92;2.00;;;19.90;99.90;;;;;;5041964;28;20431;-89
2023/07/06 09:45:25;;;;;;;7.03;1.50;;;20.20;99.90;;;;;;5041191;28;20040;-89
2023/07/06 09:48:17;;;;;;;5.65;1.90;;;20.40;99.90;;;;;;5043818;28;20033;-88
2023/07/06 09:50:50;;;;;;;4.03;1.70;;;20.50;99.90;;;;;;5008149;28;20033;-89
2023/07/06 09:53:51;;;;;;;5.25;1.65;;;20.50;99.90;;;;;;5043549;28;20439;-88
2023/07/06 09:56:22;;;;;;;7.70;2.05;;;20.50;99.90;;;;;;5057072;28;20033;-88
2023/07/06 09:58:52;;;;;;;4.85;1.70;;;20.50;99.90;;;;;;5040470;28;20031;-88
2023/07/06 10:06:19;;;;;;;5.88;2.00;;;20.80;99.90;;;;;;5057317;28;20156;-88
2023/07/06 10:08:53;;;;;;;5.03;1.90;;;20.60;99.90;;;;;;5057830;28;20116;-88
2023/07/06 10:20:30;;;;;;;6.13;1.90;;;20.30;99.90;;;;;;5057684;28;20055;-88
2023/07/06 10:28:13;;;;;;;3.50;1.70;;;20.60;99.90;;;;;;5016071;28;20104;-88
2023/07/06 10:30:45;;;;;;;3.80;1.88;;;20.40;99.90;;;;;;4983371;28;20060;-88
2023/07/06 10:38:31;;;;;;;5.95;1.65;;;20.30;99.90;;;;;;4977074;28;20041;-88
2023/07/06 10:45:02;;;;;;;5.20;1.50;;;20.20;99.90;;;;;;4934831;29;20110;-88
2023/07/06 10:48:15;;;;;;;4.38;1.65;;;20.40;99.90;;;;;;4885122;29;20053;-87
2023/07/06 10:51:09;;;;;;;4.43;1.45;;;20.50;99.90;;;;;;4884344;29;20032;-87
2023/07/06 10:53:43;;;;;;;5.32;1.65;;;20.80;99.90;;;;;;4878692;29;20044;-87
2023/07/06 10:56:12;;;;;;;3.60;1.40;;;21.00;99.90;;;;;;4966544;28;20047;-87
2023/07/06 10:59:00;;;;;;;4.80;1.85;;;20.90;99.90;;;;;;4948017;28;20050;-87
2023/07/06 11:01:37;;;;;;;5.32;1.52;;;20.90;99.90;;;;;;4943494;28;20065;-87
2023/07/06 11:04:41;;;;;;;5.63;1.80;;;21.10;99.90;;;;;;4959570;28;20098;-88
2023/07/06 11:07:14;;;;;;;5.55;1.65;;;21.30;99.90;;;;;;4943938;28;20456;-88
2023/07/06 11:13:25;;;;;;;4.82;1.70;;;21.30;99.90;;;;;;4959796;28;20415;-87
2023/07/06 11:20:23;;;;;;;5.70;1.70;;;21.40;99.90;;;;;;4974783;28;20043;-89
2023/07/06 11:23:04;;;;;;;7.35;1.75;;;21.30;99.90;;;;;;4982262;28;20074;-88
2023/07/06 11:25:31;;;;;;;4.63;1.50;;;21.30;99.90;;;;;;4986646;28;20025;-88
2023/07/06 11:28:23;;;;;;;3.55;1.58;;;21.40;99.90;;;;;;4959186;28;20039;-88
2023/07/06 11:31:26;;;;;;;4.15;1.58;;;21.60;99.90;;;;;;5015793;28;20029;-88
2023/07/06 11:34:15;;;;;;;6.70;1.95;;;21.60;99.90;;;;;;5006013;28;20417;-88
2023/07/06 11:41:10;;;;;;;;;;;;;;;;;;;;;
2023/07/06 11:44:14;;;;;;;4.95;2.08;;;21.60;99.90;;;;;;5007985;28;20037;-87
2023/07/06 11:46:51;;;;;;;5.27;1.73;;;21.50;99.90;;;;;;5061981;28;20468;-88
2023/07/06 11:49:40;;;;;;;4.75;1.50;;;21.60;99.90;;;;;;5038101;28;20389;-87
2023/07/06 11:52:15;;;;;;;8.55;1.77;;;21.80;99.90;;;;;;5021928;28;20033;-88
2023/07/06 11:54:51;;;;;;;4.50;2.10;;;22.10;99.90;;;;;;5022600;28;20033;-88
2023/07/06 11:57:31;;;;;;;3.92;1.50;;;22.10;99.90;;;;;;5023780;28;20032;-88
2023/07/06 12:00:22;;;;;;;4.75;1.73;;;22.20;99.90;;;;;;5020493;28;20120;-88
2023/07/06 12:03:09;;;;;;;9.88;2.40;;;22.20;99.90;;;;;;5030232;28;20037;-88
2023/07/06 12:05:53;;;;;;;6.53;2.05;;;22.20;99.90;;;;;;5038667;28;20152;-88
2023/07/06 12:08:27;;;;;;;8.07;2.13;;;22.30;99.90;;;;;;4978516;28;20046;-88
2023/07/06 12:11:19;;;;;;;5.60;2.10;;;22.30;99.90;;;;;;5037331;28;20047;-88
2023/07/06 12:13:55;;;;;;;6.35;1.90;;;22.50;99.90;;;;;;5019848;28;20021;-89
2023/07/06 12:16:24;;;;;;;4.18;1.50;;;22.60;99.90;;;;;;5005383;28;20029;-88
2023/07/06 12:22:58;;;;;;;4.75;1.60;;;22.80;99.90;;;;;;5055809;28;20023;-89
2023/07/06 12:25:29;;;;;;;6.50;1.73;;;22.70;99.90;;;;;;5022089;28;20304;-88
2023/07/06 12:28:00;;;;;;;4.07;1.85;;;22.70;99.90;;;;;;5023021;28;20029;-89
2023/07/06 12:30:33;;;;;;;8.13;1.70;;;22.60;99.90;;;;;;5025599;28;20313;-88
2023/07/06 12:33:19;;;;;;;4.82;1.85;;;22.70;99.70;;;;;;5041616;28;20033;-88
2023/07/06 12:35:55;;;;;;;7.20;2.35;;;22.70;99.90;;;;;;5025462;28;20033;-88
2023/07/06 12:38:24;;;;;;;6.90;1.80;;;22.70;99.90;;;;;;5025240;28;20055;-88
2023/07/06 12:40:51;;;;;;;6.07;2.05;;;22.70;99.90;;;;;;5024672;28;20373;-88
2023/07/06 12:43:27;;;;;;;7.28;2.05;;;22.70;99.90;;;;;;5021793;28;20031;-88
2023/07/06 12:45:58;;;;;;;10.63;2.25;;;22.60;99.90;;;;;;5028306;28;20123;-89
2023/07/06 12:48:32;;;;;;;6.95;1.70;;;22.70;99.90;;;;;;5028500;28;20048;-89
2023/07/06 12:51:12;;;;;;;6.90;1.70;;;22.80;99.90;;;;;;5049228;28;20048;-89
2023/07/06 12:53:42;;;;;;;6.18;1.85;;;22.70;99.90;;;;;;5028842;28;20028;-87
2023/07/06 12:56:16;;;;;;;3.05;1.27;;;22.80;99.90;;;;;;5027783;28;20036;-88
2023/07/06 12:58:53;;;;;;;6.10;1.70;;;22.80;99.90;;;;;;5029293;28;20029;-88
2023/07/06 13:01:34;;;;;;;6.20;1.40;;;22.80;99.90;;;;;;5009505;28;20040;-87
2023/07/06 13:04:08;;;;;;;5.82;1.60;;;22.80;99.90;;;;;;5024295;28;20120;-88
2023/07/06 13:06:53;;;;;;;5.63;1.42;;;22.80;99.30;;;;;;5024613;28;20094;-88
2023/07/06 13:09:30;;;;;;;6.88;2.00;;;22.80;99.50;;;;;;5021781;28;20037;-88
2023/07/06 13:12:09;;;;;;;8.02;1.80;;;22.90;99.80;;;;;;5024656;28;20040;-88
2023/07/06 13:14:40;;;;;;;7.30;1.77;;;22.80;99.40;;;;;;5046885;28;20127;-87
2023/07/06 13:17:15;;;;;;;6.80;1.63;;;22.90;99.50;;;;;;5034382;28;20037;-88
2023/07/06 13:19:48;;;;;;;5.45;1.75;;;22.90;99.90;;;;;;5025867;28;20098;-88
2023/07/06 13:22:20;;;;;;;4.97;1.75;;;22.70;99.40;;;;;;5028592;28;20033;-88
2023/07/06 13:24:57;;;;;;;7.05;1.92;;;22.60;99.80;;;;;;5041256;28;20135;-87
2023/07/06 13:27:27;;;;;;;4.65;1.80;;;22.60;99.90;;;;;;5023930;28;20032;-88
2023/07/06 13:29:55;;;;;;;6.20;1.90;;;22.50;99.90;;;;;;5007967;28;20040;-88
2023/07/06 13:32:24;;;;;;;7.22;1.70;;;22.60;99.70;;;;;;5023361;28;20044;-88
2023/07/06 13:34:51;;;;;;;5.30;1.83;;;22.60;99.30;;;;;;5007335;28;20028;-88
2023/07/06 13:37:40;;;;;;;7.05;1.92;;;22.50;99.60;;;;;;5035303;28;20054;-88
2023/07/06 13:40:15;;;;;;;7.25;1.95;;;22.50;99.70;;;;;;5013315;28;20037;-90
2023/07/06 13:42:49;;;;;;;8.05;1.80;;;22.40;99.90;;;;;;5036335;28;20020;-89
2023/07/06 13:45:41;;;;;;;5.38;1.90;;;22.30;99.90;;;;;;5044722;28;20033;-89
2023/07/06 13:48:31;;;;;;;7.70;2.10;;;22.20;99.90;;;;;;5020590;28;20046;-90
2023/07/06 13:51:05;;;;;;;6.07;1.90;;;22.30;99.90;;;;;;5038225;28;20172;-90
2023/07/06 13:53:39;;;;;;;5.05;1.60;;;22.30;99.90;;;;;;4972960;28;20140;-90
2023/07/06 13:56:06;;;;;;;8.88;2.35;;;22.30;99.90;;;;;;4995775;28;20107;-89
2023/07/06 13:58:38;;;;;;;6.93;2.20;;;22.20;99.90;;;;;;5024135;28;20420;-89
2023/07/06 14:01:04;;;;;;;5.28;1.95;;;22.10;99.90;;;;;;4998149;28;20032;-89
2023/07/06 14:03:35;;;;;;;6.50;1.98;;;22.10;99.90;;;;;;5040557;28;20036;-89
2023/07/06 14:06:03;;;;;;;10.20;1.80;;;22.10;99.90;;;;;;5007900;28;20083;-90
2023/07/06 14:08:29;;;;;;;4.85;1.67;;;22.20;99.90;;;;;;5024203;28;20037;-89
2023/07/06 14:11:06;;;;;;;8.85;2.05;;;22.20;99.90;;;;;;5022877;28;20051;-89
2023/07/06 14:13:43;;;;;;;4.43;1.80;;;22.20;99.90;;;;;;5015671;28;20075;-89
2023/07/06 14:16:16;;;;;;;7.93;2.20;;;22.10;99.70;;;;;;5025732;28;20481;-89
2023/07/06 14:18:51;;;;;;;4.80;1.85;;;21.90;99.90;;;;;;5006751;28;20064;-90
2023/07/06 14:21:22;;;;;;;5.18;2.05;;;21.90;99.90;;;;;;4997046;28;20032;-89
2023/07/06 14:23:51;;;;;;;6.20;2.05;;;21.80;99.90;;;;;;5006702;28;20032;-91
2023/07/06 14:26:20;;;;;;;6.13;2.00;;;21.70;99.90;;;;;;5006885;28;20333;-89
2023/07/06 14:28:51;;;;;;;7.30;1.98;;;21.70;99.90;;;;;;5006376;28;20059;-89
2023/07/06 14:31:25;;;;;;;6.95;2.17;;;21.70;99.90;;;;;;5024052;28;20123;-89
2023/07/06 14:33:56;;;;;;;5.70;1.80;;;21.60;99.90;;;;;;5024256;28;20408;-89
2023/07/06 14:37:05;;;;;;;6.70;2.00;;;21.60;99.90;;;;;;5033908;28;20308;-89
2023/07/06 14:39:33;;;;;;;6.35;1.75;;;21.50;99.90;;;;;;5038857;28;20025;-88
2023/07/06 14:42:00;;;;;;;4.97;2.08;;;21.60;99.90;;;;;;5005174;28;20045;-89
2023/07/06 14:44:26;;;;;;;4.75;1.83;;;21.70;99.90;;;;;;5035817;28;20057;-89
2023/07/06 14:46:54;;;;;;;7.63;2.28;;;21.90;99.90;;;;;;4997912;28;20036;-88
2023/07/06 14:49:33;;;;;;;6.82;1.90;;;22.10;99.90;;;;;;5040641;28;20044;-89
2023/07/06 14:52:00;;;;;;;7.25;2.25;;;22.10;99.90;;;;;;5045209;28;20071;-89
2023/07/06 14:54:26;;;;;;;7.65;2.30;;;22.00;99.90;;;;;;5026393;28;20020;-89
2023/07/06 14:56:52;;;;;;;5.88;1.85;;;21.90;99.90;;;;;;5025249;28;20493;-89
2023/07/06 14:59:18;;;;;;;7.57;2.15;;;21.80;99.90;;;;;;5007874;28;20033;-88
2023/07/06 15:01:44;;;;;;;7.28;1.98;;;21.70;99.90;;;;;;5035187;28;20099;-89
2023/07/06 15:04:10;;;;;;;7.32;2.10;;;21.50;99.90;;;;;;5041810;28;20032;-88
2023/07/06 15:06:39;;;;;;;5.72;1.90;;;21.50;99.90;;;;;;5038670;28;20039;-89
2023/07/06 15:09:05;;;;;;;8.50;1.83;;;21.50;99.90;;;;;;5021840;28;20393;-89
2023/07/06 15:11:34;;;;;;;5.78;1.77;;;21.40;99.90;;;;;;5023608;28;20075;-88
2023/07/06 15:14:00;;;;;;;7.63;1.85;;;21.30;99.90;;;;;;5021815;28;20139;-90
2023/07/06 15:16:26;;;;;;;9.32;2.05;;;21.30;99.90;;;;;;5039246;28;20458;-89
2023/07/06 15:18:52;;;;;;;10.50;2.15;;;21.30;99.90;;;;;;5033171;28;20021;-92
2023/07/06 15:21:21;;;;;;;10.07;2.10;;;21.20;99.90;;;;;;5017184;28;20035;-88
2023/07/06 15:23:48;;;;;;;7.22;1.80;;;21.30;99.90;;;;;;5023445;28;20029;-88
2023/07/06 15:26:18;;;;;;;9.38;2.30;;;21.40;99.90;;;;;;5022214;28;20045;-89
2023/07/06 15:28:52;;;;;;;6.80;2.10;;;21.50;99.90;;;;;;5026516;28;20056;-88
2023/07/06 15:31:26;;;;;;;6.68;1.67;;;21.50;99.90;;;;;;5040240;28;20040;-88
2023/07/06 15:33:54;;;;;;;9.98;2.42;;;21.40;99.90;;;;;;5005560;28;20033;-88
2023/07/06 15:36:21;;;;;;;6.47;2.00;;;21.40;99.90;;;;;;5021829;28;20056;-88
2023/07/06 15:38:48;;;;;;;7.30;2.10;;;21.30;99.90;;;;;;5022953;28;20025;-88